sensor_id;sensor_type;location;lat;lon;timestamp;P1;durP1;ratioP1;P2;durP2;ratioP2
6679;SDS011;3376;42.664;23.346;2023-06-19T00:00:54;4.43;;;4.23;;
6679;SDS011;3376;42.664;23.346;2023-06-19T00:03:21;4.30;;;4.00;;
6679;SDS011;3376;42.664;23.346;2023-06-19T00:05:47;4.67;;;4.47;;
6679;SDS011;3376;42.664;23.346;2023-06-19T00:08:14;4.70;;;4.40;;
6679;SDS011;3376;42.664;23.346;2023-06-19T00:10:41;4.43;;;4.13;;
6679;SDS011;3376;42.664;23.346;2023-06-19T00:13:08;4.30;;;4.10;;
6679;SDS011;3376;42.664;23.346;2023-06-19T00:15:36;5.10;;;4.63;;
6679;SDS011;3376;42.664;23.346;2023-06-19T00:18:03;4.00;;;3.87;;
6679;SDS011;3376;42.664;23.346;2023-06-19T00:20:32;4.10;;;3.90;;
6679;SDS011;3376;42.664;23.346;2023-06-19T00:22:59;4.10;;;3.80;;
6679;SDS011;3376;42.664;23.346;2023-06-19T00:25:26;3.67;;;3.53;;
6679;SDS011;3376;42.664;23.346;2023-06-19T00:27:53;3.87;;;3.67;;
6679;SDS011;3376;42.664;23.346;2023-06-19T00:30:19;4.43;;;4.13;;
6679;SDS011;3376;42.664;23.346;2023-06-19T00:32:48;4.33;;;4.13;;
6679;SDS011;3376;42.664;23.346;2023-06-19T00:35:18;4.20;;;3.77;;
6679;SDS011;3376;42.664;23.346;2023-06-19T00:37:46;4.23;;;4.13;;
6679;SDS011;3376;42.664;23.346;2023-06-19T00:40:15;4.17;;;3.97;;
6679;SDS011;3376;42.664;23.346;2023-06-19T00:42:47;4.33;;;4.07;;
6679;SDS011;3376;42.664;23.346;2023-06-19T00:45:14;4.20;;;4.03;;
6679;SDS011;3376;42.664;23.346;2023-06-19T00:47:41;12.20;;;4.77;;
6679;SDS011;3376;42.664;23.346;2023-06-19T00:50:10;3.93;;;3.83;;
6679;SDS011;3376;42.664;23.346;2023-06-19T00:52:37;4.67;;;4.27;;
6679;SDS011;3376;42.664;23.346;2023-06-19T00:55:04;4.30;;;4.00;;
6679;SDS011;3376;42.664;23.346;2023-06-19T00:57:32;4.33;;;4.03;;
6679;SDS011;3376;42.664;23.346;2023-06-19T00:59:59;4.40;;;4.10;;
6679;SDS011;3376;42.664;23.346;2023-06-19T01:02:29;4.43;;;4.13;;
6679;SDS011;3376;42.664;23.346;2023-06-19T01:04:57;4.60;;;4.40;;
6679;SDS011;3376;42.664;23.346;2023-06-19T01:07:27;4.23;;;4.03;;
6679;SDS011;3376;42.664;23.346;2023-06-19T01:10:02;4.63;;;4.43;;
6679;SDS011;3376;42.664;23.346;2023-06-19T01:12:33;4.27;;;3.97;;
6679;SDS011;3376;42.664;23.346;2023-06-19T01:15:03;4.40;;;4.10;;
6679;SDS011;3376;42.664;23.346;2023-06-19T01:17:31;4.90;;;4.63;;
6679;SDS011;3376;42.664;23.346;2023-06-19T01:19:58;5.00;;;4.70;;
6679;SDS011;3376;42.664;23.346;2023-06-19T01:22:32;4.83;;;4.50;;
6679;SDS011;3376;42.664;23.346;2023-06-19T01:24:59;4.93;;;4.63;;
6679;SDS011;3376;42.664;23.346;2023-06-19T01:27:26;4.97;;;4.77;;
6679;SDS011;3376;42.664;23.346;2023-06-19T01:29:55;5.17;;;4.87;;
6679;SDS011;3376;42.664;23.346;2023-06-19T01:32:22;4.17;;;3.97;;
6679;SDS011;3376;42.664;23.346;2023-06-19T01:34:55;4.77;;;4.57;;
6679;SDS011;3376;42.664;23.346;2023-06-19T01:37:25;4.53;;;4.33;;
6679;SDS011;3376;42.664;23.346;2023-06-19T01:39:55;5.20;;;4.90;;
6679;SDS011;3376;42.664;23.346;2023-06-19T01:42:25;5.10;;;4.70;;
6679;SDS011;3376;42.664;23.346;2023-06-19T01:44:52;4.23;;;3.73;;
6679;SDS011;3376;42.664;23.346;2023-06-19T01:47:19;4.90;;;4.57;;
6679;SDS011;3376;42.664;23.346;2023-06-19T01:49:46;5.67;;;5.13;;
6679;SDS011;3376;42.664;23.346;2023-06-19T01:52:13;4.40;;;4.13;;
6679;SDS011;3376;42.664;23.346;2023-06-19T01:54:40;4.90;;;4.57;;
6679;SDS011;3376;42.664;23.346;2023-06-19T01:57:08;3.97;;;3.87;;
6679;SDS011;3376;42.664;23.346;2023-06-19T01:59:35;5.07;;;4.87;;
6679;SDS011;3376;42.664;23.346;2023-06-19T02:02:02;4.60;;;4.30;;
6679;SDS011;3376;42.664;23.346;2023-06-19T02:04:31;4.97;;;4.67;;
6679;SDS011;3376;42.664;23.346;2023-06-19T02:06:58;4.73;;;4.43;;
6679;SDS011;3376;42.664;23.346;2023-06-19T02:09:25;5.47;;;5.03;;
6679;SDS011;3376;42.664;23.346;2023-06-19T02:11:52;4.97;;;4.77;;
6679;SDS011;3376;42.664;23.346;2023-06-19T02:14:20;4.43;;;4.23;;
6679;SDS011;3376;42.664;23.346;2023-06-19T02:16:47;5.50;;;4.97;;
6679;SDS011;3376;42.664;23.346;2023-06-19T02:19:14;4.80;;;4.60;;
6679;SDS011;3376;42.664;23.346;2023-06-19T02:21:40;4.83;;;4.63;;
6679;SDS011;3376;42.664;23.346;2023-06-19T02:24:07;8.40;;;5.07;;
6679;SDS011;3376;42.664;23.346;2023-06-19T02:26:34;5.53;;;5.20;;
6679;SDS011;3376;42.664;23.346;2023-06-19T02:29:01;4.83;;;4.53;;
6679;SDS011;3376;42.664;23.346;2023-06-19T02:31:29;5.43;;;5.23;;
6679;SDS011;3376;42.664;23.346;2023-06-19T02:33:56;5.60;;;5.40;;
6679;SDS011;3376;42.664;23.346;2023-06-19T02:36:23;5.67;;;5.37;;
6679;SDS011;3376;42.664;23.346;2023-06-19T02:38:50;5.63;;;5.27;;
6679;SDS011;3376;42.664;23.346;2023-06-19T02:41:17;5.07;;;4.87;;
6679;SDS011;3376;42.664;23.346;2023-06-19T02:43:44;5.87;;;5.57;;
6679;SDS011;3376;42.664;23.346;2023-06-19T02:46:12;11.53;;;10.80;;
6679;SDS011;3376;42.664;23.346;2023-06-19T02:48:40;6.17;;;5.83;;
6679;SDS011;3376;42.664;23.346;2023-06-19T02:51:07;5.23;;;4.83;;
6679;SDS011;3376;42.664;23.346;2023-06-19T02:53:33;5.80;;;5.60;;
6679;SDS011;3376;42.664;23.346;2023-06-19T02:56:00;4.80;;;4.60;;
6679;SDS011;3376;42.664;23.346;2023-06-19T02:58:27;5.43;;;5.23;;
6679;SDS011;3376;42.664;23.346;2023-06-19T03:00:54;5.37;;;4.77;;
6679;SDS011;3376;42.664;23.346;2023-06-19T03:03:21;6.53;;;6.10;;
6679;SDS011;3376;42.664;23.346;2023-06-19T03:05:49;5.57;;;5.33;;
6679;SDS011;3376;42.664;23.346;2023-06-19T03:08:16;5.77;;;5.20;;
6679;SDS011;3376;42.664;23.346;2023-06-19T03:10:43;5.47;;;5.20;;
6679;SDS011;3376;42.664;23.346;2023-06-19T03:13:10;5.13;;;4.93;;
6679;SDS011;3376;42.664;23.346;2023-06-19T03:15:36;5.60;;;5.40;;
6679;SDS011;3376;42.664;23.346;2023-06-19T03:18:03;5.60;;;5.20;;
6679;SDS011;3376;42.664;23.346;2023-06-19T03:20:32;9.20;;;6.17;;
6679;SDS011;3376;42.664;23.346;2023-06-19T03:23:00;6.70;;;6.10;;
6679;SDS011;3376;42.664;23.346;2023-06-19T03:25:27;6.17;;;5.60;;
6679;SDS011;3376;42.664;23.346;2023-06-19T03:27:59;6.43;;;5.93;;
6679;SDS011;3376;42.664;23.346;2023-06-19T03:30:26;6.20;;;5.60;;
6679;SDS011;3376;42.664;23.346;2023-06-19T03:32:53;5.97;;;5.77;;
6679;SDS011;3376;42.664;23.346;2023-06-19T03:35:20;6.27;;;5.97;;
6679;SDS011;3376;42.664;23.346;2023-06-19T03:37:47;6.73;;;6.33;;
6679;SDS011;3376;42.664;23.346;2023-06-19T03:40:15;6.83;;;6.43;;
6679;SDS011;3376;42.664;23.346;2023-06-19T03:42:42;6.97;;;6.47;;
6679;SDS011;3376;42.664;23.346;2023-06-19T03:45:09;6.83;;;6.27;;
6679;SDS011;3376;42.664;23.346;2023-06-19T03:47:36;7.83;;;6.30;;
6679;SDS011;3376;42.664;23.346;2023-06-19T03:50:03;6.70;;;6.20;;
6679;SDS011;3376;42.664;23.346;2023-06-19T03:52:34;6.93;;;6.63;;
6679;SDS011;3376;42.664;23.346;2023-06-19T03:55:01;6.37;;;5.90;;
6679;SDS011;3376;42.664;23.346;2023-06-19T03:57:29;6.00;;;5.60;;
6679;SDS011;3376;42.664;23.346;2023-06-19T03:59:56;6.17;;;5.83;;
6679;SDS011;3376;42.664;23.346;2023-06-19T04:02:23;9.33;;;5.83;;
6679;SDS011;3376;42.664;23.346;2023-06-19T04:04:50;6.40;;;5.70;;
6679;SDS011;3376;42.664;23.346;2023-06-19T04:07:17;5.53;;;5.23;;
6679;SDS011;3376;42.664;23.346;2023-06-19T04:09:44;6.80;;;5.70;;
6679;SDS011;3376;42.664;23.346;2023-06-19T04:12:11;6.27;;;5.87;;
6679;SDS011;3376;42.664;23.346;2023-06-19T04:14:39;6.03;;;5.47;;
6679;SDS011;3376;42.664;23.346;2023-06-19T04:17:06;5.57;;;5.23;;
6679;SDS011;3376;42.664;23.346;2023-06-19T04:19:32;5.90;;;5.40;;
6679;SDS011;3376;42.664;23.346;2023-06-19T04:21:59;11.33;;;5.60;;
6679;SDS011;3376;42.664;23.346;2023-06-19T04:24:26;5.73;;;4.93;;
6679;SDS011;3376;42.664;23.346;2023-06-19T04:26:53;6.83;;;5.43;;
6679;SDS011;3376;42.664;23.346;2023-06-19T04:29:20;5.57;;;5.27;;
6679;SDS011;3376;42.664;23.346;2023-06-19T04:31:48;6.40;;;4.90;;
6679;SDS011;3376;42.664;23.346;2023-06-19T04:34:15;5.87;;;5.47;;
6679;SDS011;3376;42.664;23.346;2023-06-19T04:36:46;5.50;;;5.20;;
6679;SDS011;3376;42.664;23.346;2023-06-19T04:39:12;5.93;;;4.77;;
6679;SDS011;3376;42.664;23.346;2023-06-19T04:41:40;5.40;;;4.93;;
6679;SDS011;3376;42.664;23.346;2023-06-19T04:44:08;5.47;;;4.93;;
6679;SDS011;3376;42.664;23.346;2023-06-19T04:46:36;5.20;;;4.80;;
6679;SDS011;3376;42.664;23.346;2023-06-19T04:49:05;5.50;;;5.20;;
6679;SDS011;3376;42.664;23.346;2023-06-19T04:51:32;5.40;;;4.90;;
6679;SDS011;3376;42.664;23.346;2023-06-19T04:53:58;5.30;;;5.00;;
6679;SDS011;3376;42.664;23.346;2023-06-19T04:56:25;5.40;;;5.00;;
6679;SDS011;3376;42.664;23.346;2023-06-19T04:58:53;5.67;;;5.23;;
6679;SDS011;3376;42.664;23.346;2023-06-19T05:01:22;5.23;;;4.93;;
6679;SDS011;3376;42.664;23.346;2023-06-19T05:03:53;5.70;;;5.20;;
6679;SDS011;3376;42.664;23.346;2023-06-19T05:06:22;5.80;;;5.40;;
6679;SDS011;3376;42.664;23.346;2023-06-19T05:08:49;5.70;;;5.27;;
6679;SDS011;3376;42.664;23.346;2023-06-19T05:11:17;4.93;;;4.73;;
6679;SDS011;3376;42.664;23.346;2023-06-19T05:13:44;4.50;;;4.20;;
6679;SDS011;3376;42.664;23.346;2023-06-19T05:16:11;5.30;;;4.80;;
6679;SDS011;3376;42.664;23.346;2023-06-19T05:18:41;5.00;;;4.60;;
6679;SDS011;3376;42.664;23.346;2023-06-19T05:21:08;5.03;;;4.60;;
6679;SDS011;3376;42.664;23.346;2023-06-19T05:23:36;5.13;;;4.83;;
6679;SDS011;3376;42.664;23.346;2023-06-19T05:26:04;4.60;;;4.33;;
6679;SDS011;3376;42.664;23.346;2023-06-19T05:28:30;4.67;;;4.17;;
6679;SDS011;3376;42.664;23.346;2023-06-19T05:30:57;4.40;;;4.20;;
6679;SDS011;3376;42.664;23.346;2023-06-19T05:33:24;4.93;;;4.53;;
6679;SDS011;3376;42.664;23.346;2023-06-19T05:35:52;5.23;;;4.63;;
6679;SDS011;3376;42.664;23.346;2023-06-19T05:38:19;4.50;;;4.20;;
6679;SDS011;3376;42.664;23.346;2023-06-19T05:40:47;4.37;;;3.97;;
6679;SDS011;3376;42.664;23.346;2023-06-19T05:43:14;5.93;;;3.93;;
6679;SDS011;3376;42.664;23.346;2023-06-19T05:45:41;4.43;;;4.03;;
6679;SDS011;3376;42.664;23.346;2023-06-19T05:48:07;4.50;;;4.30;;
6679;SDS011;3376;42.664;23.346;2023-06-19T05:50:34;4.97;;;4.43;;
6679;SDS011;3376;42.664;23.346;2023-06-19T05:53:01;4.37;;;4.17;;
6679;SDS011;3376;42.664;23.346;2023-06-19T05:55:28;4.30;;;4.10;;
6679;SDS011;3376;42.664;23.346;2023-06-19T05:57:56;4.43;;;4.13;;
6679;SDS011;3376;42.664;23.346;2023-06-19T06:00:23;8.83;;;6.83;;
6679;SDS011;3376;42.664;23.346;2023-06-19T06:02:50;5.47;;;4.87;;
6679;SDS011;3376;42.664;23.346;2023-06-19T06:05:17;4.83;;;4.53;;
6679;SDS011;3376;42.664;23.346;2023-06-19T06:07:44;4.10;;;3.90;;
6679;SDS011;3376;42.664;23.346;2023-06-19T06:10:12;6.57;;;6.13;;
6679;SDS011;3376;42.664;23.346;2023-06-19T06:12:39;5.83;;;4.40;;
6679;SDS011;3376;42.664;23.346;2023-06-19T06:15:07;5.20;;;4.80;;
6679;SDS011;3376;42.664;23.346;2023-06-19T06:17:34;4.30;;;4.10;;
6679;SDS011;3376;42.664;23.346;2023-06-19T06:20:01;5.17;;;4.77;;
6679;SDS011;3376;42.664;23.346;2023-06-19T06:22:31;4.50;;;4.30;;
6679;SDS011;3376;42.664;23.346;2023-06-19T06:24:58;5.00;;;4.60;;
6679;SDS011;3376;42.664;23.346;2023-06-19T06:27:25;4.83;;;4.53;;
6679;SDS011;3376;42.664;23.346;2023-06-19T06:29:52;4.80;;;4.40;;
6679;SDS011;3376;42.664;23.346;2023-06-19T06:32:20;5.60;;;5.20;;
6679;SDS011;3376;42.664;23.346;2023-06-19T06:34:47;5.20;;;4.90;;
6679;SDS011;3376;42.664;23.346;2023-06-19T06:37:14;4.93;;;4.63;;
6679;SDS011;3376;42.664;23.346;2023-06-19T06:39:42;4.40;;;4.20;;
6679;SDS011;3376;42.664;23.346;2023-06-19T06:42:09;5.83;;;5.40;;
6679;SDS011;3376;42.664;23.346;2023-06-19T06:44:36;3.97;;;3.77;;
6679;SDS011;3376;42.664;23.346;2023-06-19T06:47:03;4.83;;;4.63;;
6679;SDS011;3376;42.664;23.346;2023-06-19T06:49:31;6.10;;;5.70;;
6679;SDS011;3376;42.664;23.346;2023-06-19T06:51:58;5.40;;;5.00;;
6679;SDS011;3376;42.664;23.346;2023-06-19T06:54:25;4.77;;;4.47;;
6679;SDS011;3376;42.664;23.346;2023-06-19T06:56:52;4.53;;;4.23;;
6679;SDS011;3376;42.664;23.346;2023-06-19T06:59:21;5.13;;;4.60;;
6679;SDS011;3376;42.664;23.346;2023-06-19T07:01:48;7.27;;;6.40;;
6679;SDS011;3376;42.664;23.346;2023-06-19T07:04:14;5.67;;;5.27;;
6679;SDS011;3376;42.664;23.346;2023-06-19T07:06:42;4.87;;;4.67;;
6679;SDS011;3376;42.664;23.346;2023-06-19T07:09:09;5.33;;;4.83;;
6679;SDS011;3376;42.664;23.346;2023-06-19T07:11:36;4.43;;;4.13;;
6679;SDS011;3376;42.664;23.346;2023-06-19T07:14:03;4.17;;;4.07;;
6679;SDS011;3376;42.664;23.346;2023-06-19T07:16:30;6.17;;;4.20;;
6679;SDS011;3376;42.664;23.346;2023-06-19T07:18:56;5.13;;;4.73;;
6679;SDS011;3376;42.664;23.346;2023-06-19T07:21:23;4.00;;;3.80;;
6679;SDS011;3376;42.664;23.346;2023-06-19T07:23:51;4.63;;;4.43;;
6679;SDS011;3376;42.664;23.346;2023-06-19T07:26:18;5.43;;;5.13;;
6679;SDS011;3376;42.664;23.346;2023-06-19T07:28:45;3.83;;;3.50;;
6679;SDS011;3376;42.664;23.346;2023-06-19T07:31:12;4.33;;;4.00;;
6679;SDS011;3376;42.664;23.346;2023-06-19T07:33:38;3.57;;;3.40;;
6679;SDS011;3376;42.664;23.346;2023-06-19T07:36:05;3.47;;;3.30;;
6679;SDS011;3376;42.664;23.346;2023-06-19T07:38:33;4.53;;;4.23;;
6679;SDS011;3376;42.664;23.346;2023-06-19T07:41:01;4.87;;;4.60;;
6679;SDS011;3376;42.664;23.346;2023-06-19T07:43:28;12.03;;;4.13;;
6679;SDS011;3376;42.664;23.346;2023-06-19T07:45:55;4.80;;;4.40;;
6679;SDS011;3376;42.664;23.346;2023-06-19T07:48:21;4.50;;;4.20;;
6679;SDS011;3376;42.664;23.346;2023-06-19T07:50:48;4.93;;;4.63;;
6679;SDS011;3376;42.664;23.346;2023-06-19T07:53:15;4.63;;;4.23;;
6679;SDS011;3376;42.664;23.346;2023-06-19T07:55:42;5.00;;;4.70;;
6679;SDS011;3376;42.664;23.346;2023-06-19T07:58:10;3.70;;;3.50;;
6679;SDS011;3376;42.664;23.346;2023-06-19T08:00:37;4.00;;;3.77;;
6679;SDS011;3376;42.664;23.346;2023-06-19T08:03:04;3.90;;;3.80;;
6679;SDS011;3376;42.664;23.346;2023-06-19T08:05:31;4.10;;;3.90;;
6679;SDS011;3376;42.664;23.346;2023-06-19T08:07:58;3.78;;;3.67;;
6679;SDS011;3376;42.664;23.346;2023-06-19T08:10:25;4.63;;;4.43;;
6679;SDS011;3376;42.664;23.346;2023-06-19T08:12:52;4.05;;;3.85;;
6679;SDS011;3376;42.664;23.346;2023-06-19T08:15:20;3.70;;;3.45;;
6679;SDS011;3376;42.664;23.346;2023-06-19T08:17:47;4.00;;;3.70;;
6679;SDS011;3376;42.664;23.346;2023-06-19T08:20:13;3.75;;;3.53;;
6679;SDS011;3376;42.664;23.346;2023-06-19T08:22:40;3.92;;;3.72;;
6679;SDS011;3376;42.664;23.346;2023-06-19T08:25:07;4.00;;;3.67;;
6679;SDS011;3376;42.664;23.346;2023-06-19T08:27:34;3.65;;;3.55;;
6679;SDS011;3376;42.664;23.346;2023-06-19T08:30:01;3.95;;;3.85;;
6679;SDS011;3376;42.664;23.346;2023-06-19T08:32:29;4.35;;;3.90;;
6679;SDS011;3376;42.664;23.346;2023-06-19T08:34:56;3.78;;;3.67;;
6679;SDS011;3376;42.664;23.346;2023-06-19T08:37:22;4.13;;;4.03;;
6679;SDS011;3376;42.664;23.346;2023-06-19T08:39:49;3.75;;;3.55;;
6679;SDS011;3376;42.664;23.346;2023-06-19T08:42:16;3.47;;;3.28;;
6679;SDS011;3376;42.664;23.346;2023-06-19T08:44:43;3.67;;;3.58;;
6679;SDS011;3376;42.664;23.346;2023-06-19T08:47:09;4.78;;;4.57;;
6679;SDS011;3376;42.664;23.346;2023-06-19T08:49:38;3.40;;;3.30;;
6679;SDS011;3376;42.664;23.346;2023-06-19T08:52:05;4.43;;;3.70;;
6679;SDS011;3376;42.664;23.346;2023-06-19T08:54:33;4.05;;;3.85;;
6679;SDS011;3376;42.664;23.346;2023-06-19T08:57:09;5.18;;;3.88;;
6679;SDS011;3376;42.664;23.346;2023-06-19T08:59:36;3.42;;;3.25;;
6679;SDS011;3376;42.664;23.346;2023-06-19T09:02:03;3.70;;;3.50;;
6679;SDS011;3376;42.664;23.346;2023-06-19T09:04:30;3.45;;;3.35;;
6679;SDS011;3376;42.664;23.346;2023-06-19T09:06:58;4.47;;;4.25;;
6679;SDS011;3376;42.664;23.346;2023-06-19T09:09:27;3.58;;;3.42;;
6679;SDS011;3376;42.664;23.346;2023-06-19T09:11:56;4.78;;;3.70;;
6679;SDS011;3376;42.664;23.346;2023-06-19T09:14:24;4.15;;;3.85;;
6679;SDS011;3376;42.664;23.346;2023-06-19T09:16:57;3.97;;;3.78;;
6679;SDS011;3376;42.664;23.346;2023-06-19T09:19:24;4.18;;;3.92;;
6679;SDS011;3376;42.664;23.346;2023-06-19T09:21:51;4.30;;;3.90;;
6679;SDS011;3376;42.664;23.346;2023-06-19T09:24:19;7.18;;;6.68;;
6679;SDS011;3376;42.664;23.346;2023-06-19T09:26:46;4.13;;;3.83;;
6679;SDS011;3376;42.664;23.346;2023-06-19T09:29:13;3.67;;;3.58;;
6679;SDS011;3376;42.664;23.346;2023-06-19T09:31:43;5.55;;;3.40;;
6679;SDS011;3376;42.664;23.346;2023-06-19T09:34:09;3.15;;;3.05;;
6679;SDS011;3376;42.664;23.346;2023-06-19T09:36:36;2.92;;;2.83;;
6679;SDS011;3376;42.664;23.346;2023-06-19T09:39:04;3.75;;;3.65;;
6679;SDS011;3376;42.664;23.346;2023-06-19T09:41:32;3.63;;;3.47;;
6679;SDS011;3376;42.664;23.346;2023-06-19T09:44:01;3.75;;;3.45;;
6679;SDS011;3376;42.664;23.346;2023-06-19T09:46:33;4.00;;;3.80;;
6679;SDS011;3376;42.664;23.346;2023-06-19T09:49:03;4.53;;;4.10;;
6679;SDS011;3376;42.664;23.346;2023-06-19T09:51:32;3.33;;;3.15;;
6679;SDS011;3376;42.664;23.346;2023-06-19T09:54:03;8.63;;;4.43;;
6679;SDS011;3376;42.664;23.346;2023-06-19T09:56:33;3.65;;;3.45;;
6679;SDS011;3376;42.664;23.346;2023-06-19T09:59:00;5.25;;;4.85;;
6679;SDS011;3376;42.664;23.346;2023-06-19T10:01:29;4.22;;;4.03;;
6679;SDS011;3376;42.664;23.346;2023-06-19T10:04:03;4.35;;;4.07;;
6679;SDS011;3376;42.664;23.346;2023-06-19T10:06:31;3.22;;;2.90;;
6679;SDS011;3376;42.664;23.346;2023-06-19T10:09:05;3.67;;;3.50;;
6679;SDS011;3376;42.664;23.346;2023-06-19T10:11:48;4.20;;;3.88;;
6679;SDS011;3376;42.664;23.346;2023-06-19T10:14:17;4.28;;;3.90;;
6679;SDS011;3376;42.664;23.346;2023-06-19T10:16:44;3.85;;;3.65;;
6679;SDS011;3376;42.664;23.346;2023-06-19T10:19:13;3.45;;;3.15;;
6679;SDS011;3376;42.664;23.346;2023-06-19T10:21:44;3.63;;;3.42;;
6679;SDS011;3376;42.664;23.346;2023-06-19T10:24:15;4.18;;;3.97;;
6679;SDS011;3376;42.664;23.346;2023-06-19T10:26:54;6.22;;;3.92;;
6679;SDS011;3376;42.664;23.346;2023-06-19T10:29:24;3.65;;;3.55;;
6679;SDS011;3376;42.664;23.346;2023-06-19T10:31:52;3.70;;;3.60;;
6679;SDS011;3376;42.664;23.346;2023-06-19T10:34:19;4.15;;;3.95;;
6679;SDS011;3376;42.664;23.346;2023-06-19T10:36:46;3.72;;;3.63;;
6679;SDS011;3376;42.664;23.346;2023-06-19T10:39:13;3.88;;;3.67;;
6679;SDS011;3376;42.664;23.346;2023-06-19T10:41:41;3.53;;;3.33;;
6679;SDS011;3376;42.664;23.346;2023-06-19T10:44:09;3.15;;;3.05;;
6679;SDS011;3376;42.664;23.346;2023-06-19T10:46:38;3.78;;;3.58;;
6679;SDS011;3376;42.664;23.346;2023-06-19T10:49:05;4.03;;;3.83;;
6679;SDS011;3376;42.664;23.346;2023-06-19T10:51:35;4.13;;;3.92;;
6679;SDS011;3376;42.664;23.346;2023-06-19T10:54:02;4.10;;;4.00;;
6679;SDS011;3376;42.664;23.346;2023-06-19T10:56:29;3.90;;;3.70;;
6679;SDS011;3376;42.664;23.346;2023-06-19T10:58:57;6.20;;;4.10;;
6679;SDS011;3376;42.664;23.346;2023-06-19T11:01:32;3.97;;;3.80;;
6679;SDS011;3376;42.664;23.346;2023-06-19T11:04:02;3.42;;;3.20;;
6679;SDS011;3376;42.664;23.346;2023-06-19T11:06:30;3.92;;;3.38;;
6679;SDS011;3376;42.664;23.346;2023-06-19T11:08:58;4.55;;;4.35;;
6679;SDS011;3376;42.664;23.346;2023-06-19T11:11:34;4.10;;;3.90;;
6679;SDS011;3376;42.664;23.346;2023-06-19T11:14:01;4.38;;;4.18;;
6679;SDS011;3376;42.664;23.346;2023-06-19T11:16:28;3.80;;;3.60;;
6679;SDS011;3376;42.664;23.346;2023-06-19T11:18:57;3.53;;;3.42;;
6679;SDS011;3376;42.664;23.346;2023-06-19T11:21:29;4.40;;;3.78;;
6679;SDS011;3376;42.664;23.346;2023-06-19T11:23:58;4.30;;;4.10;;
6679;SDS011;3376;42.664;23.346;2023-06-19T11:26:25;5.22;;;4.88;;
6679;SDS011;3376;42.664;23.346;2023-06-19T11:28:52;4.25;;;4.13;;
6679;SDS011;3376;42.664;23.346;2023-06-19T11:31:24;7.35;;;4.97;;
6679;SDS011;3376;42.664;23.346;2023-06-19T11:33:57;4.93;;;4.50;;
6679;SDS011;3376;42.664;23.346;2023-06-19T11:36:24;3.92;;;3.83;;
6679;SDS011;3376;42.664;23.346;2023-06-19T11:38:51;3.83;;;3.72;;
6679;SDS011;3376;42.664;23.346;2023-06-19T11:41:24;3.95;;;3.85;;
6679;SDS011;3376;42.664;23.346;2023-06-19T11:43:57;4.65;;;4.45;;
6679;SDS011;3376;42.664;23.346;2023-06-19T11:46:28;4.20;;;4.10;;
6679;SDS011;3376;42.664;23.346;2023-06-19T11:49:00;5.05;;;4.70;;
6679;SDS011;3376;42.664;23.346;2023-06-19T11:51:34;3.70;;;3.50;;
6679;SDS011;3376;42.664;23.346;2023-06-19T11:54:00;4.28;;;4.03;;
6679;SDS011;3376;42.664;23.346;2023-06-19T11:56:28;4.10;;;3.63;;
6679;SDS011;3376;42.664;23.346;2023-06-19T11:58:55;3.95;;;3.65;;
6679;SDS011;3376;42.664;23.346;2023-06-19T12:01:21;5.05;;;4.07;;
6679;SDS011;3376;42.664;23.346;2023-06-19T12:03:48;4.18;;;3.95;;
6679;SDS011;3376;42.664;23.346;2023-06-19T12:06:17;5.03;;;4.60;;
6679;SDS011;3376;42.664;23.346;2023-06-19T12:08:44;4.85;;;4.65;;
6679;SDS011;3376;42.664;23.346;2023-06-19T12:11:11;4.47;;;4.28;;
6679;SDS011;3376;42.664;23.346;2023-06-19T12:13:38;4.28;;;4.07;;
6679;SDS011;3376;42.664;23.346;2023-06-19T12:16:06;4.40;;;4.10;;
6679;SDS011;3376;42.664;23.346;2023-06-19T12:18:33;4.63;;;4.22;;
6679;SDS011;3376;42.664;23.346;2023-06-19T12:20:59;4.18;;;3.97;;
6679;SDS011;3376;42.664;23.346;2023-06-19T12:23:28;3.78;;;3.67;;
6679;SDS011;3376;42.664;23.346;2023-06-19T12:25:54;4.15;;;3.90;;
6679;SDS011;3376;42.664;23.346;2023-06-19T12:28:21;4.00;;;3.80;;
6679;SDS011;3376;42.664;23.346;2023-06-19T12:30:48;4.60;;;4.40;;
6679;SDS011;3376;42.664;23.346;2023-06-19T12:33:16;4.63;;;4.32;;
6679;SDS011;3376;42.664;23.346;2023-06-19T12:35:44;3.83;;;3.72;;
6679;SDS011;3376;42.664;23.346;2023-06-19T12:38:11;6.88;;;4.05;;
6679;SDS011;3376;42.664;23.346;2023-06-19T12:40:39;4.55;;;4.35;;
6679;SDS011;3376;42.664;23.346;2023-06-19T12:43:06;4.18;;;3.88;;
6679;SDS011;3376;42.664;23.346;2023-06-19T12:45:34;4.68;;;4.47;;
6679;SDS011;3376;42.664;23.346;2023-06-19T12:48:00;4.40;;;4.20;;
6679;SDS011;3376;42.664;23.346;2023-06-19T12:50:27;4.40;;;4.20;;
6679;SDS011;3376;42.664;23.346;2023-06-19T12:52:54;4.43;;;4.22;;
6679;SDS011;3376;42.664;23.346;2023-06-19T12:55:21;4.10;;;3.88;;
6679;SDS011;3376;42.664;23.346;2023-06-19T12:57:49;3.90;;;3.70;;
6679;SDS011;3376;42.664;23.346;2023-06-19T13:00:15;3.85;;;3.72;;
6679;SDS011;3376;42.664;23.346;2023-06-19T13:02:42;4.88;;;4.47;;
6679;SDS011;3376;42.664;23.346;2023-06-19T13:05:11;4.30;;;3.90;;
6679;SDS011;3376;42.664;23.346;2023-06-19T13:07:38;4.20;;;3.90;;
6679;SDS011;3376;42.664;23.346;2023-06-19T13:10:05;4.28;;;4.07;;
6679;SDS011;3376;42.664;23.346;2023-06-19T13:12:32;4.43;;;4.13;;
6679;SDS011;3376;42.664;23.346;2023-06-19T13:15:01;4.63;;;4.32;;
6679;SDS011;3376;42.664;23.346;2023-06-19T13:17:27;4.20;;;4.00;;
6679;SDS011;3376;42.664;23.346;2023-06-19T13:19:54;3.83;;;3.63;;
6679;SDS011;3376;42.664;23.346;2023-06-19T13:22:21;3.58;;;3.47;;
6679;SDS011;3376;42.664;23.346;2023-06-19T13:24:48;4.28;;;3.58;;
6679;SDS011;3376;42.664;23.346;2023-06-19T13:27:15;4.28;;;3.95;;
6679;SDS011;3376;42.664;23.346;2023-06-19T13:29:41;4.30;;;3.97;;
6679;SDS011;3376;42.664;23.346;2023-06-19T13:32:09;4.13;;;3.95;;
6679;SDS011;3376;42.664;23.346;2023-06-19T13:34:36;4.13;;;3.33;;
6679;SDS011;3376;42.664;23.346;2023-06-19T13:37:03;4.53;;;4.15;;
6679;SDS011;3376;42.664;23.346;2023-06-19T13:39:30;3.22;;;3.13;;
6679;SDS011;3376;42.664;23.346;2023-06-19T13:41:57;3.50;;;3.38;;
6679;SDS011;3376;42.664;23.346;2023-06-19T13:44:26;7.55;;;4.28;;
6679;SDS011;3376;42.664;23.346;2023-06-19T13:46:53;4.03;;;3.83;;
6679;SDS011;3376;42.664;23.346;2023-06-19T13:49:21;3.80;;;3.53;;
6679;SDS011;3376;42.664;23.346;2023-06-19T13:51:48;3.60;;;3.50;;
6679;SDS011;3376;42.664;23.346;2023-06-19T13:54:16;4.00;;;3.70;;
6679;SDS011;3376;42.664;23.346;2023-06-19T13:56:42;5.28;;;4.82;;
6679;SDS011;3376;42.664;23.346;2023-06-19T13:59:09;4.30;;;4.00;;
6679;SDS011;3376;42.664;23.346;2023-06-19T14:01:36;4.57;;;4.38;;
6679;SDS011;3376;42.664;23.346;2023-06-19T14:04:03;3.67;;;3.58;;
6679;SDS011;3376;42.664;23.346;2023-06-19T14:06:31;5.68;;;3.33;;
6679;SDS011;3376;42.664;23.346;2023-06-19T14:08:58;3.55;;;3.30;;
6679;SDS011;3376;42.664;23.346;2023-06-19T14:11:24;3.53;;;3.33;;
6679;SDS011;3376;42.664;23.346;2023-06-19T14:13:51;3.80;;;3.60;;
6679;SDS011;3376;42.664;23.346;2023-06-19T14:16:18;4.72;;;4.40;;
6679;SDS011;3376;42.664;23.346;2023-06-19T14:18:45;3.80;;;3.60;;
6679;SDS011;3376;42.664;23.346;2023-06-19T14:21:12;4.20;;;3.53;;
6679;SDS011;3376;42.664;23.346;2023-06-19T14:23:40;3.58;;;3.38;;
6679;SDS011;3376;42.664;23.346;2023-06-19T14:26:08;3.45;;;3.35;;
6679;SDS011;3376;42.664;23.346;2023-06-19T14:28:36;3.35;;;3.25;;
6679;SDS011;3376;42.664;23.346;2023-06-19T14:31:03;3.60;;;3.50;;
6679;SDS011;3376;42.664;23.346;2023-06-19T14:33:30;4.18;;;3.88;;
6679;SDS011;3376;42.664;23.346;2023-06-19T14:35:58;3.90;;;3.70;;
6679;SDS011;3376;42.664;23.346;2023-06-19T14:38:25;3.63;;;3.53;;
6679;SDS011;3376;42.664;23.346;2023-06-19T14:40:57;3.80;;;3.70;;
6679;SDS011;3376;42.664;23.346;2023-06-19T14:43:25;3.85;;;3.63;;
6679;SDS011;3376;42.664;23.346;2023-06-19T14:45:52;4.03;;;3.83;;
6679;SDS011;3376;42.664;23.346;2023-06-19T14:48:18;4.30;;;4.05;;
6679;SDS011;3376;42.664;23.346;2023-06-19T14:50:45;3.88;;;3.58;;
6679;SDS011;3376;42.664;23.346;2023-06-19T14:53:12;4.38;;;3.97;;
6679;SDS011;3376;42.664;23.346;2023-06-19T14:55:39;4.00;;;3.90;;
6679;SDS011;3376;42.664;23.346;2023-06-19T14:58:11;4.20;;;3.90;;
6679;SDS011;3376;42.664;23.346;2023-06-19T15:00:38;3.38;;;3.28;;
6679;SDS011;3376;42.664;23.346;2023-06-19T15:03:06;4.30;;;3.90;;